Time;durP1;ratioP1;P1;durP2;ratioP2;P2;SDS_P1;SDS_P2;PMS_P1;PMS_P2;Temp;Humidity;BMP_temperature;BMP_pressure;BME280_temperature;BME280_humidity;BME280_pressure;Samples;Min_cycle;Max_cycle;Signal;HPM_P1;HPM_P2
2022/06/21 00:01:19;;;;;;;5.63;2.25;;;10.80;99.90;;;;;;5030763;28;20092;-78
2022/06/21 00:03:47;;;;;;;7.03;1.98;;;10.70;99.90;;;;;;5030775;28;20049;-78
2022/06/21 00:06:15;;;;;;;6.82;1.98;;;10.60;99.90;;;;;;5014521;28;20091;-77
2022/06/21 00:08:41;;;;;;;4.72;2.38;;;10.60;99.90;;;;;;5030779;28;20544;-77
2022/06/21 00:11:28;;;;;;;8.43;2.35;;;10.50;99.90;;;;;;5030768;28;20123;-78
2022/06/21 00:13:54;;;;;;;21.45;3.28;;;10.50;99.90;;;;;;5014459;28;20038;-77
2022/06/21 00:16:22;;;;;;;6.85;1.70;;;10.50;99.90;;;;;;5030935;28;20053;-77
2022/06/21 00:18:48;;;;;;;6.72;2.05;;;10.50;99.90;;;;;;5030963;28;20061;-77
2022/06/21 00:21:23;;;;;;;7.22;2.72;;;10.50;99.90;;;;;;5030625;28;20033;-76
2022/06/21 00:23:52;;;;;;;3.03;1.50;;;10.50;99.90;;;;;;5031003;28;20045;-77
2022/06/21 00:26:20;;;;;;;2.80;1.60;;;10.50;99.90;;;;;;5030694;28;20096;-78
2022/06/21 00:28:46;;;;;;;1.98;1.70;;;10.40;99.90;;;;;;5030865;28;20042;-78
2022/06/21 00:31:25;;;;;;;4.22;1.60;;;10.40;99.90;;;;;;5030644;28;20045;-77
2022/06/21 00:33:51;;;;;;;2.72;1.80;;;10.40;99.90;;;;;;5030823;28;20558;-78
2022/06/21 00:36:23;;;;;;;5.93;1.88;;;10.40;99.90;;;;;;5030903;28;20045;-77
2022/06/21 00:38:50;;;;;;;6.18;1.80;;;10.30;99.90;;;;;;5032045;28;20069;-77
2022/06/21 00:41:18;;;;;;;6.93;1.63;;;10.30;99.90;;;;;;5013570;28;20045;-78
2022/06/21 00:47:36;;;;;;;6.65;2.05;;;10.20;99.90;;;;;;5014990;28;20048;-78
2022/06/21 00:50:35;;;;;;;7.35;2.25;;;10.10;99.90;;;;;;5028034;28;20508;-77
2022/06/21 00:53:18;;;;;;;6.90;2.10;;;10.20;99.90;;;;;;5029812;28;20389;-76
2022/06/21 00:55:49;;;;;;;5.18;1.75;;;10.10;99.90;;;;;;5030580;28;20029;-77
2022/06/21 00:58:18;;;;;;;6.03;2.30;;;10.10;99.90;;;;;;5030976;28;20049;-77
2022/06/21 01:01:01;;;;;;;6.45;1.92;;;10.10;99.90;;;;;;5029884;28;20077;-78
2022/06/21 01:03:37;;;;;;;6.63;2.28;;;10.10;99.90;;;;;;5032654;28;20053;-76
2022/06/21 01:06:47;;;;;;;3.88;2.33;;;10.10;99.90;;;;;;5049708;28;20048;-75
2022/06/21 01:09:15;;;;;;;5.18;1.75;;;10.10;99.90;;;;;;5041820;28;20052;-77
2022/06/21 01:11:57;;;;;;;11.88;2.67;;;10.00;99.90;;;;;;5030419;28;20046;-78
2022/06/21 01:14:24;;;;;;;4.40;2.20;;;10.10;99.90;;;;;;5029887;28;20095;-78
2022/06/21 01:16:51;;;;;;;4.93;2.00;;;10.10;99.90;;;;;;5029491;28;20045;-77
2022/06/21 01:19:46;;;;;;;5.43;2.03;;;10.00;99.90;;;;;;5029788;28;20469;-78
2022/06/21 01:22:59;;;;;;;4.43;1.83;;;10.00;99.90;;;;;;5031445;28;20041;-77
2022/06/21 01:25:38;;;;;;;;;;;9.90;99.90;;;;;;4976660;28;20053;-78
2022/06/21 01:28:05;;;;;;;6.22;2.13;;;9.90;99.90;;;;;;4976107;28;19918;-78
2022/06/21 01:30:32;;;;;;;11.43;3.80;;;9.90;99.90;;;;;;5018713;28;20050;-77
2022/06/21 01:33:01;;;;;;;5.68;1.80;;;9.80;99.90;;;;;;5033160;28;20045;-78
2022/06/21 01:35:33;;;;;;;3.75;2.53;;;9.80;99.90;;;;;;5032650;28;20441;-77
2022/06/21 01:38:00;;;;;;;5.93;1.90;;;9.80;99.90;;;;;;5032880;28;20068;-78
2022/06/21 01:40:33;;;;;;;5.05;2.35;;;9.80;99.90;;;;;;4999423;28;20048;-77
2022/06/21 01:43:08;;;;;;;3.58;1.80;;;9.80;99.90;;;;;;5032686;28;20049;-76
2022/06/21 01:45:38;;;;;;;3.78;2.00;;;9.80;99.90;;;;;;5032932;28;20111;-77
2022/06/21 01:48:10;;;;;;;7.72;2.40;;;9.80;99.90;;;;;;5032801;28;20587;-78
2022/06/21 01:50:37;;;;;;;11.40;2.92;;;9.70;99.90;;;;;;5032637;28;20400;-78
2022/06/21 01:53:06;;;;;;;11.65;2.78;;;9.70;99.90;;;;;;5032204;28;20045;-76
2022/06/21 01:55:45;;;;;;;9.00;3.80;;;9.70;99.90;;;;;;5032424;28;20048;-77
2022/06/21 01:58:21;;;;;;;3.17;1.77;;;9.70;99.90;;;;;;5032552;28;20060;-77
2022/06/21 02:00:56;;;;;;;5.85;2.72;;;9.70;99.90;;;;;;5032204;28;20092;-78
2022/06/21 02:03:29;;;;;;;3.75;2.17;;;9.70;99.90;;;;;;5032086;28;20033;-78
2022/06/21 02:05:59;;;;;;;2.25;1.95;;;9.70;99.90;;;;;;5033631;28;20443;-76
2022/06/21 02:08:32;;;;;;;4.50;2.30;;;9.70;99.90;;;;;;5032676;28;20037;-76
2022/06/21 02:11:01;;;;;;;8.52;2.03;;;9.60;99.90;;;;;;5032515;28;20536;-77
2022/06/21 02:13:36;;;;;;;4.28;1.95;;;9.60;99.90;;;;;;5032684;28;20057;-78
2022/06/21 02:16:07;;;;;;;6.85;2.65;;;9.50;99.90;;;;;;5032589;28;20048;-78
2022/06/21 02:18:38;;;;;;;10.13;2.20;;;9.40;99.90;;;;;;5016114;28;20042;-78
2022/06/21 02:21:20;;;;;;;6.13;2.30;;;9.30;99.90;;;;;;5032877;28;20057;-77
2022/06/21 02:23:53;;;;;;;9.57;2.67;;;9.40;99.90;;;;;;5032577;28;20043;-78
2022/06/21 02:26:20;;;;;;;5.00;2.30;;;9.40;99.90;;;;;;5032278;28;20050;-78
2022/06/21 02:28:46;;;;;;;2.88;1.90;;;9.50;99.90;;;;;;5032721;28;20103;-77
2022/06/21 02:31:12;;;;;;;5.97;2.55;;;9.50;99.90;;;;;;5032204;28;20116;-77
2022/06/21 02:33:40;;;;;;;2.95;2.10;;;9.50;99.90;;;;;;5031540;28;20147;-78
2022/06/21 02:36:15;;;;;;;4.53;2.50;;;9.40;99.90;;;;;;5033451;28;20095;-78
2022/06/21 02:38:55;;;;;;;7.45;2.80;;;9.30;99.90;;;;;;5015839;28;20077;-78
2022/06/21 02:41:34;;;;;;;4.53;1.73;;;9.30;99.90;;;;;;5032496;28;20135;-78
2022/06/21 02:44:21;;;;;;;4.93;2.13;;;9.30;99.90;;;;;;5032660;28;20076;-78
2022/06/21 02:46:51;;;;;;;6.90;1.83;;;9.30;99.90;;;;;;5032457;28;20128;-77
2022/06/21 02:49:27;;;;;;;4.60;2.45;;;9.30;99.90;;;;;;5032782;28;20753;-77
2022/06/21 02:52:01;;;;;;;2.90;2.00;;;9.30;99.90;;;;;;5015815;28;20076;-77
2022/06/21 02:54:35;;;;;;;5.47;2.00;;;9.30;99.90;;;;;;5031631;28;20042;-77
2022/06/21 02:57:07;;;;;;;5.22;2.47;;;9.30;99.90;;;;;;5015334;28;20049;-78
2022/06/21 02:59:36;;;;;;;4.93;2.13;;;9.20;99.90;;;;;;5031545;28;20116;-78
2022/06/21 03:02:08;;;;;;;6.70;3.35;;;9.30;99.90;;;;;;5032139;28;20088;-78
2022/06/21 03:04:47;;;;;;;4.38;2.13;;;9.20;99.90;;;;;;5015638;28;20404;-78
2022/06/21 03:07:20;;;;;;;4.00;2.17;;;9.20;99.90;;;;;;5032151;28;20103;-78
2022/06/21 03:09:46;;;;;;;5.78;2.63;;;9.20;99.90;;;;;;5031784;28;20037;-78
2022/06/21 03:12:17;;;;;;;7.47;1.85;;;9.30;99.90;;;;;;5031999;28;20056;-77
2022/06/21 03:14:44;;;;;;;6.47;2.40;;;9.20;99.90;;;;;;5031701;28;20113;-78
2022/06/21 03:17:15;;;;;;;5.05;2.30;;;9.20;99.90;;;;;;5031743;28;20734;-77
2022/06/21 03:19:51;;;;;;;6.15;2.45;;;9.20;99.90;;;;;;5031204;28;20037;-78
2022/06/21 03:22:19;;;;;;;8.10;2.92;;;9.20;99.90;;;;;;5031342;28;20088;-78
2022/06/21 03:24:48;;;;;;;4.75;2.28;;;9.20;99.90;;;;;;5014617;28;20580;-76
2022/06/21 03:27:58;;;;;;;5.13;2.80;;;9.20;99.90;;;;;;5031321;28;20051;-77
2022/06/21 03:30:34;;;;;;;5.82;3.53;;;9.20;99.90;;;;;;5028071;28;20064;-78
2022/06/21 03:33:03;;;;;;;4.57;2.22;;;9.10;99.90;;;;;;5031362;28;20101;-78
2022/06/21 03:35:33;;;;;;;5.60;2.58;;;9.10;99.90;;;;;;5031939;28;20044;-78
2022/06/21 03:37:59;;;;;;;6.22;2.42;;;9.20;99.90;;;;;;5031363;28;20041;-78
2022/06/21 03:43:22;;;;;;;5.65;2.00;;;9.20;99.90;;;;;;5014657;28;20052;-77
2022/06/21 03:45:50;;;;;;;3.95;2.50;;;9.20;99.90;;;;;;5014859;28;20052;-78
2022/06/21 03:48:46;;;;;;;4.38;2.20;;;9.20;99.90;;;;;;5031628;28;20080;-78
2022/06/21 03:51:16;;;;;;;7.65;2.60;;;9.30;99.90;;;;;;5003123;28;20164;-78
2022/06/21 03:53:53;;;;;;;5.40;2.05;;;9.30;99.90;;;;;;5031917;28;20048;-77
2022/06/21 03:56:39;;;;;;;5.85;2.60;;;9.20;99.90;;;;;;5031114;28;20091;-78
2022/06/21 03:59:14;;;;;;;5.95;2.45;;;9.30;99.90;;;;;;5031178;28;20382;-78
2022/06/21 04:01:53;;;;;;;3.95;2.53;;;9.40;99.90;;;;;;5032300;28;20212;-78
2022/06/21 04:04:31;;;;;;;2.80;2.08;;;9.40;99.90;;;;;;5014614;28;20052;-77
2022/06/21 04:07:03;;;;;;;5.63;2.88;;;9.50;99.90;;;;;;5031289;28;20052;-78
2022/06/21 04:09:38;;;;;;;5.03;2.85;;;9.50;99.90;;;;;;5030805;28;20084;-77
2022/06/21 04:12:19;;;;;;;4.63;2.38;;;9.50;99.90;;;;;;5031260;28;20768;-78
2022/06/21 04:14:54;;;;;;;5.50;2.55;;;9.60;99.90;;;;;;5031386;28;20048;-76
2022/06/21 04:17:44;;;;;;;3.70;2.58;;;9.60;99.90;;;;;;5031349;28;20034;-78
2022/06/21 04:20:16;;;;;;;3.40;2.38;;;9.70;99.90;;;;;;5031728;28;20041;-78
2022/06/21 04:23:25;;;;;;;10.43;3.60;;;9.80;99.90;;;;;;5031235;28;20120;-77
2022/06/21 04:26:13;;;;;;;5.15;2.92;;;9.80;99.90;;;;;;5008389;28;20057;-77
2022/06/21 04:28:45;;;;;;;4.40;2.75;;;9.90;99.90;;;;;;5032893;28;20044;-78
2022/06/21 04:31:30;;;;;;;6.07;2.45;;;10.00;99.90;;;;;;5047047;28;20045;-77
2022/06/21 04:33:57;;;;;;;4.85;2.90;;;10.00;99.90;;;;;;5028889;28;20052;-78
2022/06/21 04:36:34;;;;;;;2.70;2.47;;;10.10;99.90;;;;;;5030331;28;20067;-78
2022/06/21 04:39:24;;;;;;;5.07;2.97;;;10.10;99.90;;;;;;5013864;28;20073;-78
2022/06/21 04:41:59;;;;;;;5.93;2.33;;;10.20;99.90;;;;;;5014186;28;20601;-78
2022/06/21 04:44:36;;;;;;;5.88;2.75;;;10.30;99.90;;;;;;5014200;28;20102;-78
2022/06/21 04:47:17;;;;;;;5.22;2.63;;;10.50;99.90;;;;;;5014542;28;20488;-78
2022/06/21 04:49:56;;;;;;;4.32;2.78;;;10.60;99.90;;;;;;5030378;28;20041;-78
2022/06/21 04:52:34;;;;;;;5.00;2.72;;;10.80;99.90;;;;;;5030796;28;20073;-78
2022/06/21 04:55:01;;;;;;;4.40;2.97;;;11.20;99.90;;;;;;5014024;28;20073;-78
2022/06/21 04:57:29;;;;;;;4.60;3.20;;;11.50;99.90;;;;;;5034084;28;20048;-78
2022/06/21 04:59:58;;;;;;;22.80;12.88;;;11.60;99.90;;;;;;5034393;28;20034;-78
2022/06/21 05:02:26;;;;;;;5.25;3.45;;;11.70;99.90;;;;;;5034331;28;20049;-78
2022/06/21 05:05:19;;;;;;;8.45;3.90;;;11.90;99.90;;;;;;5034132;28;20042;-78
2022/06/21 05:07:54;;;;;;;5.82;3.50;;;12.30;99.90;;;;;;5034035;28;20124;-72
2022/06/21 05:10:28;;;;;;;5.70;3.10;;;12.70;99.90;;;;;;5033991;28;20069;-78
2022/06/21 05:12:55;;;;;;;5.55;3.20;;;13.00;99.90;;;;;;5034169;28;20037;-78
2022/06/21 05:15:28;;;;;;;6.10;3.00;;;13.40;99.90;;;;;;5034272;28;20095;-78
2022/06/21 05:17:58;;;;;;;6.55;2.67;;;13.80;99.90;;;;;;5018335;28;20093;-78
2022/06/21 05:20:31;;;;;;;8.30;2.97;;;14.40;99.90;;;;;;5033503;28;20117;-79
2022/06/21 05:23:01;;;;;;;12.85;3.20;;;15.00;99.90;;;;;;5017707;28;20030;-78
2022/06/21 05:25:29;;;;;;;8.40;2.92;;;15.70;99.90;;;;;;5033701;28;20048;-78
2022/06/21 05:28:00;;;;;;;8.45;3.15;;;16.30;99.90;;;;;;5033736;28;20495;-78
2022/06/21 05:30:39;;;;;;;9.35;3.92;;;16.70;99.90;;;;;;5034572;28;20145;-79
2022/06/21 05:33:26;;;;;;;9.20;4.40;;;17.20;99.90;;;;;;5018643;28;20493;-79
2022/06/21 05:35:52;;;;;;;8.70;3.65;;;17.70;99.90;;;;;;5035840;28;20091;-79
2022/06/21 05:38:25;;;;;;;3.78;2.00;;;18.10;99.90;;;;;;5035373;28;20044;-79
2022/06/21 05:41:00;;;;;;;7.07;2.45;;;18.40;99.90;;;;;;5034474;28;20041;-79
2022/06/21 05:43:38;;;;;;;6.97;2.47;;;18.70;99.90;;;;;;5018792;28;20052;-79
2022/06/21 05:46:15;;;;;;;13.07;9.57;;;18.80;99.90;;;;;;5017518;28;20030;-80
2022/06/21 05:48:42;;;;;;;7.55;2.20;;;19.20;99.90;;;;;;5016798;28;20041;-80
2022/06/21 05:51:16;;;;;;;8.60;2.60;;;19.60;99.90;;;;;;5034462;28;20460;-79
2022/06/21 05:53:48;;;;;;;7.72;1.85;;;19.80;99.90;;;;;;5033996;28;20041;-79
2022/06/21 05:56:17;;;;;;;6.15;1.98;;;19.90;99.90;;;;;;5034776;28;20176;-79
2022/06/21 05:58:52;;;;;;;7.05;2.30;;;20.10;99.90;;;;;;5034977;28;20069;-79
2022/06/21 06:01:38;;;;;;;5.28;1.73;;;20.30;99.90;;;;;;5034085;28;20045;-79
2022/06/21 06:04:53;;;;;;;5.95;1.88;;;20.40;99.90;;;;;;5023700;28;20057;-79
2022/06/21 06:07:27;;;;;;;5.47;1.45;;;20.00;99.90;;;;;;5033509;28;20127;-78
2022/06/21 06:09:56;;;;;;;5.07;1.48;;;19.50;99.90;;;;;;5035468;28;20124;-78
2022/06/21 06:12:32;;;;;;;4.25;1.67;;;19.40;99.90;;;;;;5017042;28;20046;-77
2022/06/21 06:15:06;;;;;;;2.20;1.20;;;19.40;99.90;;;;;;5032940;28;20508;-77
2022/06/21 06:17:54;;;;;;;4.00;1.45;;;19.50;99.90;;;;;;5033748;28;20033;-78
2022/06/21 06:20:36;;;;;;;6.35;1.67;;;19.70;99.90;;;;;;5032614;28;20045;-78
2022/06/21 06:23:19;;;;;;;5.57;1.90;;;19.90;99.90;;;;;;5032946;28;20049;-78
2022/06/21 06:26:03;;;;;;;6.90;1.75;;;20.20;99.90;;;;;;5032304;28;20095;-79
2022/06/21 06:28:43;;;;;;;4.47;1.38;;;20.60;99.90;;;;;;5032607;28;20045;-78
2022/06/21 06:31:15;;;;;;;4.55;1.40;;;20.80;99.90;;;;;;5032594;28;20108;-78
2022/06/21 06:33:42;;;;;;;;;;;20.80;99.90;;;;;;5032821;28;20045;-77
2022/06/21 06:36:14;;;;;;;3.95;1.60;;;20.70;99.90;;;;;;5032370;28;20294;-79
2022/06/21 06:38:41;;;;;;;5.35;1.45;;;21.00;99.90;;;;;;5032096;28;20073;-78
2022/06/21 06:41:45;;;;;;;4.95;1.25;;;21.40;99.90;;;;;;5032497;28;20041;-79
2022/06/21 06:44:14;;;;;;;5.47;1.45;;;21.40;99.90;;;;;;5020454;28;20071;-78
2022/06/21 06:46:43;;;;;;;3.38;1.50;;;20.90;99.90;;;;;;5033282;28;20420;-78
2022/06/21 06:49:31;;;;;;;4.32;1.42;;;21.00;99.90;;;;;;5032348;28;20088;-79
2022/06/21 06:51:56;;;;;;;6.53;1.60;;;21.40;99.80;;;;;;5033018;28;20061;-78
2022/06/21 06:54:30;;;;;;;6.22;1.40;;;21.50;99.90;;;;;;5032412;28;20050;-79
2022/06/21 06:57:16;;;;;;;4.43;1.10;;;21.50;99.90;;;;;;5033479;28;20408;-78
2022/06/21 06:59:43;;;;;;;6.72;1.20;;;21.50;98.80;;;;;;5032058;28;20548;-78
2022/06/21 07:02:21;;;;;;;8.38;1.70;;;21.80;99.90;;;;;;5033204;28;20033;-77
2022/06/21 07:04:56;;;;;;;6.13;1.30;;;22.10;98.20;;;;;;5032551;28;20049;-78
2022/06/21 07:07:34;;;;;;;7.13;1.52;;;21.90;99.50;;;;;;5033262;28;20041;-77
2022/06/21 07:10:05;;;;;;;4.10;1.23;;;21.30;99.10;;;;;;5031914;28;20049;-78
2022/06/21 07:12:31;;;;;;;6.00;1.70;;;20.60;99.90;;;;;;5032592;28;20049;-78
2022/06/21 07:14:58;;;;;;;5.20;1.67;;;20.00;99.90;;;;;;5031855;28;20088;-78
2022/06/21 07:17:42;;;;;;;6.35;1.52;;;19.60;99.90;;;;;;5031727;28;20045;-78
2022/06/21 07:20:24;;;;;;;6.28;1.85;;;19.20;99.90;;;;;;5031423;28;20116;-77
2022/06/21 07:22:52;;;;;;;;;;;19.20;99.90;;;;;;5031943;28;20069;-76
2022/06/21 07:25:29;;;;;;;4.05;1.73;;;19.10;99.90;;;;;;5014783;28;20384;-78
2022/06/21 07:28:03;;;;;;;6.28;1.88;;;19.50;99.90;;;;;;5031481;28;20064;-77
2022/06/21 07:30:38;;;;;;;8.75;2.00;;;20.30;99.90;;;;;;5031359;28;20053;-78
2022/06/21 07:33:13;;;;;;;4.38;1.52;;;21.00;99.90;;;;;;5031727;28;20045;-77
2022/06/21 07:35:52;;;;;;;8.25;2.00;;;21.70;99.90;;;;;;5031616;28;20417;-78
2022/06/21 07:38:27;;;;;;;6.93;1.75;;;22.20;98.70;;;;;;5032305;28;20120;-78
2022/06/21 07:41:02;;;;;;;4.00;1.80;;;22.50;99.00;;;;;;5031805;28;20041;-78
2022/06/21 07:43:32;;;;;;;5.18;1.67;;;22.90;93.80;;;;;;5016408;28;20045;-78
2022/06/21 07:46:01;;;;;;;5.15;1.33;;;23.10;97.10;;;;;;5032177;28;20049;-78
2022/06/21 07:48:37;;;;;;;4.40;1.65;;;23.40;95.20;;;;;;5031939;28;20041;-78
2022/06/21 07:51:17;;;;;;;5.82;1.65;;;23.30;93.40;;;;;;5031518;28;20049;-77
2022/06/21 07:54:06;;;;;;;5.22;1.67;;;23.20;94.50;;;;;;5031867;28;20072;-78
2022/06/21 07:56:50;;;;;;;6.40;1.70;;;23.20;90.30;;;;;;5032081;28;20385;-77
2022/06/21 07:59:33;;;;;;;5.28;1.50;;;23.20;92.20;;;;;;5032911;28;20073;-78
2022/06/21 08:07:56;;;;;;;6.88;1.45;;;23.20;93.80;;;;;;5031465;28;20073;-79
2022/06/21 08:10:42;;;;;;;3.13;1.70;;;23.20;93.70;;;;;;5031345;28;20041;-79
2022/06/21 08:13:10;;;;;;;7.32;1.77;;;23.20;90.00;;;;;;5031278;28;20053;-78
2022/06/21 08:15:43;;;;;;;5.35;1.67;;;23.20;93.80;;;;;;5031121;28;20061;-78
2022/06/21 08:18:21;;;;;;;3.05;1.38;;;23.10;93.40;;;;;;5031252;28;20044;-79
2022/06/21 08:20:57;;;;;;;7.00;1.67;;;23.40;90.90;;;;;;5030864;28;20436;-79
2022/06/21 08:23:49;;;;;;;4.93;1.33;;;23.50;92.10;;;;;;5031189;28;20045;-78
2022/06/21 08:26:30;;;;;;;19.38;2.17;;;23.80;90.30;;;;;;5021887;28;20061;-79
2022/06/21 08:29:00;;;;;;;3.22;1.58;;;24.00;88.20;;;;;;5031381;28;20045;-78
2022/06/21 08:31:44;;;;;;;4.88;1.17;;;24.10;91.00;;;;;;5034103;28;20049;-77
2022/06/21 08:34:47;;;;;;;3.72;1.33;;;23.60;82.60;;;;;;5034435;28;20052;-78
2022/06/21 08:37:21;;;;;;;4.53;0.98;;;23.40;88.40;;;;;;5032863;28;20049;-79
2022/06/21 08:39:59;;;;;;;3.45;1.13;;;23.30;91.00;;;;;;5035000;28;20385;-78
2022/06/21 08:42:46;;;;;;;3.38;1.27;;;23.40;90.10;;;;;;5034768;28;20051;-78
2022/06/21 08:48:22;;;;;;;8.95;1.35;;;23.50;90.80;;;;;;5035780;28;20092;-78
2022/06/21 08:50:57;;;;;;;4.70;1.05;;;23.70;86.50;;;;;;5033393;28;20041;-78
2022/06/21 08:53:43;;;;;;;2.95;1.13;;;23.80;86.20;;;;;;5035364;28;20037;-78
2022/06/21 08:56:26;;;;;;;4.35;1.30;;;23.30;83.70;;;;;;5034382;28;20096;-78
2022/06/21 08:59:19;;;;;;;5.60;1.30;;;23.20;88.30;;;;;;5035499;28;20172;-78
2022/06/21 09:02:06;;;;;;;4.93;1.23;;;23.40;85.80;;;;;;5034006;28;20060;-78
2022/06/21 09:04:59;;;;;;;3.33;0.82;;;23.50;84.10;;;;;;5033752;28;20056;-78
2022/06/21 09:07:52;;;;;;;3.55;1.20;;;23.40;83.60;;;;;;5034057;28;20077;-78
2022/06/21 09:10:28;;;;;;;3.30;1.20;;;23.30;80.90;;;;;;5033557;28;20051;-78
2022/06/21 09:13:19;;;;;;;10.00;1.30;;;23.10;85.50;;;;;;5034102;28;20081;-78
2022/06/21 09:16:18;;;;;;;2.13;0.95;;;23.30;87.80;;;;;;5041950;28;20054;-78
2022/06/21 09:19:18;;;;;;;7.55;1.30;;;23.30;76.40;;;;;;5029400;28;20041;-78
2022/06/21 09:22:08;;;;;;;4.45;1.08;;;23.30;76.70;;;;;;5049156;28;20064;-77
2022/06/21 09:24:39;;;;;;;3.70;1.17;;;23.40;81.00;;;;;;5033438;28;20053;-78
2022/06/21 09:27:26;;;;;;;3.73;1.07;;;23.40;82.80;;;;;;5033388;28;20046;-78
2022/06/21 09:30:03;;;;;;;6.25;1.15;;;23.60;81.00;;;;;;5033537;28;20315;-77
2022/06/21 09:33:06;;;;;;;7.63;1.10;;;23.90;77.80;;;;;;5016745;28;20096;-79
2022/06/21 09:35:44;;;;;;;8.70;1.50;;;24.00;77.10;;;;;;5016389;28;20041;-77
2022/06/21 09:38:31;;;;;;;4.93;1.30;;;24.00;78.50;;;;;;5033088;28;20034;-78
2022/06/21 09:41:01;;;;;;;8.10;1.33;;;24.10;78.10;;;;;;5032780;28;20037;-78
2022/06/21 09:43:49;;;;;;;2.20;0.70;;;24.00;78.00;;;;;;5031811;28;20045;-78
2022/06/21 09:46:20;;;;;;;4.70;1.13;;;24.00;73.60;;;;;;5033035;28;20052;-78
2022/06/21 09:48:49;;;;;;;;;;;23.90;74.60;;;;;;5033160;28;20044;-78
2022/06/21 09:51:43;;;;;;;6.40;0.85;;;23.80;70.70;;;;;;5032614;28;19972;-77
2022/06/21 09:54:33;;;;;;;3.20;0.50;;;23.80;75.80;;;;;;5024199;28;20046;-78
2022/06/21 09:57:05;;;;;;;1.75;0.77;;;23.70;64.60;;;;;;5032367;28;20100;-78
2022/06/21 10:00:00;;;;;;;3.00;0.68;;;23.40;67.30;;;;;;5032085;28;20100;-76
2022/06/21 10:02:47;;;;;;;2.42;0.88;;;23.50;71.60;;;;;;5032491;28;20052;-78
2022/06/21 10:05:26;;;;;;;3.50;1.15;;;23.60;69.20;;;;;;5033940;28;20060;-78
2022/06/21 10:08:00;;;;;;;5.35;1.42;;;23.80;71.50;;;;;;5032759;28;20488;-78
2022/06/21 10:10:43;;;;;;;5.28;1.05;;;23.80;71.90;;;;;;5032441;28;20049;-78
2022/06/21 10:14:00;;;;;;;3.58;1.25;;;24.00;72.00;;;;;;5032279;28;20065;-78
2022/06/21 10:16:46;;;;;;;2.72;0.80;;;23.90;68.00;;;;;;4975001;28;20050;-78
2022/06/21 10:19:53;;;;;;;1.67;0.90;;;23.70;67.00;;;;;;4968491;28;20042;-77
2022/06/21 10:22:45;;;;;;;1.65;0.60;;;23.60;67.30;;;;;;5016309;28;20051;-77
2022/06/21 10:25:11;;;;;;;4.07;0.85;;;23.70;66.10;;;;;;5031955;28;20053;-78
2022/06/21 10:27:55;;;;;;;2.42;1.15;;;23.70;66.30;;;;;;5032291;28;20564;-78
2022/06/21 10:30:49;;;;;;;3.33;0.90;;;24.00;65.30;;;;;;5031683;28;20041;-79
2022/06/21 10:33:17;;;;;;;5.38;1.40;;;24.10;62.50;;;;;;5032667;28;20116;-78
2022/06/21 10:35:53;;;;;;;1.77;0.52;;;24.10;62.00;;;;;;5032293;28;20120;-79
2022/06/21 10:38:22;;;;;;;1.38;0.50;;;23.90;59.10;;;;;;5031194;28;20038;-78
2022/06/21 10:41:07;;;;;;;3.92;0.82;;;23.60;60.00;;;;;;5020364;28;20042;-77
2022/06/21 10:43:55;;;;;;;3.47;1.00;;;23.60;60.40;;;;;;5012186;28;20112;-78
2022/06/21 10:46:29;;;;;;;4.78;0.77;;;23.90;60.40;;;;;;5020749;28;20115;-78
2022/06/21 10:49:14;;;;;;;3.10;0.90;;;24.20;59.30;;;;;;5016078;28;20044;-78
2022/06/21 10:51:58;;;;;;;2.22;0.55;;;24.50;59.10;;;;;;5031530;28;20041;-78
2022/06/21 10:54:23;;;;;;;3.30;1.02;;;24.50;57.20;;;;;;5026583;28;20242;-78
2022/06/21 10:57:10;;;;;;;2.67;0.60;;;24.50;61.00;;;;;;4996134;28;20073;-79
2022/06/21 11:02:50;;;;;;;3.78;0.82;;;25.00;62.50;;;;;;5024584;28;20045;-78
2022/06/21 11:05:17;;;;;;;4.63;0.60;;;25.30;59.90;;;;;;5032000;28;20053;-79
2022/06/21 11:07:59;;;;;;;1.92;0.93;;;25.20;57.60;;;;;;5020586;28;20049;-77
2022/06/21 11:10:31;;;;;;;2.05;0.77;;;25.10;58.90;;;;;;5007244;28;20060;-79
2022/06/21 11:13:04;;;;;;;1.20;0.70;;;25.20;58.00;;;;;;5019786;28;20477;-79
2022/06/21 11:15:48;;;;;;;3.33;1.02;;;25.30;56.00;;;;;;5011960;28;20058;-79
2022/06/21 11:18:35;;;;;;;2.60;0.73;;;25.50;57.70;;;;;;5012265;28;20046;-79
2022/06/21 11:21:23;;;;;;;3.78;0.80;;;25.40;59.40;;;;;;5014300;28;20072;-78
2022/06/21 11:23:59;;;;;;;2.47;0.85;;;25.50;57.20;;;;;;5034317;28;20041;-78
2022/06/21 11:26:31;;;;;;;2.55;0.90;;;26.00;54.80;;;;;;5031591;28;20104;-78
2022/06/21 11:29:20;;;;;;;2.42;0.88;;;26.30;54.90;;;;;;5015086;28;20049;-79
2022/06/21 11:32:03;;;;;;;2.78;1.00;;;26.40;54.60;;;;;;5021825;28;20048;-77
2022/06/21 11:34:47;;;;;;;3.95;0.60;;;26.30;54.30;;;;;;5005882;28;20037;-79
2022/06/21 11:37:22;;;;;;;2.97;0.65;;;26.10;55.00;;;;;;5030642;28;20037;-79
2022/06/21 11:40:01;;;;;;;4.03;0.90;;;26.00;57.00;;;;;;5030543;28;20051;-79
2022/06/21 11:42:36;;;;;;;3.65;0.80;;;25.90;55.30;;;;;;5030953;28;20072;-79
2022/06/21 11:45:14;;;;;;;4.50;1.10;;;25.90;55.30;;;;;;5030605;28;20500;-78
2022/06/21 11:48:21;;;;;;;4.90;1.00;;;26.00;55.50;;;;;;5014187;28;20541;-79
2022/06/21 11:51:09;;;;;;;4.55;0.90;;;25.70;54.80;;;;;;5032087;28;20536;-79
2022/06/21 11:53:59;;;;;;;2.15;1.35;;;25.30;54.40;;;;;;5030880;28;20121;-80
2022/06/21 11:56:52;;;;;;;5.35;1.13;;;25.30;56.10;;;;;;5030278;28;20103;-80
2022/06/21 11:59:23;;;;;;;1.92;0.70;;;25.20;56.40;;;;;;5031356;28;20132;-80
2022/06/21 12:02:10;;;;;;;;;;;25.20;54.80;;;;;;5030908;28;20064;-79
2022/06/21 12:04:56;;;;;;;2.95;0.90;;;25.00;58.90;;;;;;5026122;28;20314;-79
2022/06/21 12:07:37;;;;;;;6.78;0.80;;;24.70;56.10;;;;;;5015017;28;20501;-79
2022/06/21 12:10:18;;;;;;;3.22;0.98;;;24.70;56.00;;;;;;5018112;28;20049;-79
2022/06/21 12:13:13;;;;;;;4.75;1.02;;;24.60;56.00;;;;;;5030949;28;20029;-79
2022/06/21 12:16:17;;;;;;;6.95;0.90;;;24.50;55.20;;;;;;5016433;28;20563;-79
2022/06/21 12:19:13;;;;;;;3.10;0.98;;;24.30;54.00;;;;;;5014985;28;20471;-79
2022/06/21 12:21:46;;;;;;;2.83;0.80;;;24.30;55.30;;;;;;5001096;28;20100;-79
2022/06/21 12:24:20;;;;;;;3.97;1.02;;;24.30;55.70;;;;;;5014377;28;20133;-79
2022/06/21 12:26:47;;;;;;;2.33;0.55;;;24.40;55.80;;;;;;5030563;28;20033;-79
2022/06/21 12:29:15;;;;;;;3.33;1.20;;;24.40;56.00;;;;;;5018216;28;20038;-79
2022/06/21 12:31:49;;;;;;;3.15;0.70;;;24.50;57.20;;;;;;5017283;28;20046;-78
2022/06/21 12:34:23;;;;;;;2.20;0.68;;;24.50;57.30;;;;;;5015274;28;20033;-79
2022/06/21 12:36:59;;;;;;;2.05;0.70;;;24.70;55.10;;;;;;5016992;28;20425;-78
2022/06/21 12:39:29;;;;;;;2.08;0.50;;;24.70;59.30;;;;;;5011866;28;20481;-79
2022/06/21 12:42:26;;;;;;;4.13;0.75;;;24.70;57.30;;;;;;5024112;28;20131;-79
2022/06/21 12:45:10;;;;;;;4.65;1.05;;;24.80;56.40;;;;;;5028850;28;20080;-78
2022/06/21 12:48:12;;;;;;;2.47;0.70;;;24.80;56.60;;;;;;5041379;28;20033;-77
2022/06/21 12:51:12;;;;;;;2.28;0.95;;;25.00;57.00;;;;;;5037133;28;20425;-77
2022/06/21 12:53:55;;;;;;;2.80;0.88;;;25.10;56.30;;;;;;5038778;28;20101;-78
2022/06/21 12:56:40;;;;;;;1.23;0.98;;;25.10;54.70;;;;;;5040817;28;20046;-78
2022/06/21 12:59:12;;;;;;;2.45;0.80;;;25.00;55.60;;;;;;5044011;28;20119;-78
2022/06/21 13:02:08;;;;;;;2.03;0.85;;;24.90;55.90;;;;;;5042971;28;20042;-78
2022/06/21 13:05:06;;;;;;;4.82;0.90;;;24.90;55.30;;;;;;5047865;28;20072;-76
2022/06/21 13:08:10;;;;;;;3.28;0.93;;;24.80;54.80;;;;;;5011506;28;20115;-76
2022/06/21 13:11:08;;;;;;;3.08;1.00;;;24.60;54.30;;;;;;5047371;28;20053;-78
2022/06/21 13:13:57;;;;;;;2.85;0.70;;;24.40;56.00;;;;;;5026322;28;20512;-79
2022/06/21 13:16:40;;;;;;;4.95;0.70;;;24.20;56.00;;;;;;5043539;28;20045;-78
2022/06/21 13:19:30;;;;;;;3.85;1.00;;;24.10;57.00;;;;;;5027661;28;20046;-78
2022/06/21 13:22:13;;;;;;;1.95;1.02;;;24.10;56.80;;;;;;5041338;28;20041;-78
2022/06/21 13:24:44;;;;;;;2.92;1.23;;;24.20;56.80;;;;;;5040757;28;20072;-77
2022/06/21 13:27:16;;;;;;;5.55;1.23;;;24.30;57.00;;;;;;5040912;28;20048;-78
2022/06/21 13:29:54;;;;;;;2.78;0.75;;;24.50;56.30;;;;;;5039853;28;20053;-78
2022/06/21 13:32:30;;;;;;;2.95;1.00;;;24.70;56.70;;;;;;5040190;28;20084;-78
2022/06/21 13:35:17;;;;;;;1.10;0.82;;;25.00;55.40;;;;;;5036331;28;20101;-78
2022/06/21 13:37:59;;;;;;;4.00;0.80;;;25.30;55.50;;;;;;5046503;28;20121;-78
2022/06/21 13:40:32;;;;;;;1.55;0.70;;;25.50;56.30;;;;;;5039982;28;20555;-79
2022/06/21 13:43:08;;;;;;;1.85;0.75;;;25.40;55.10;;;;;;5042930;28;20053;-79
2022/06/21 13:45:49;;;;;;;2.00;0.70;;;25.60;55.30;;;;;;5043786;28;20056;-77
2022/06/21 13:48:24;;;;;;;1.07;0.60;;;25.70;54.70;;;;;;5036207;28;20050;-78
2022/06/21 13:51:04;;;;;;;4.40;0.80;;;25.80;53.40;;;;;;5038228;28;20045;-78
2022/06/21 13:53:47;;;;;;;6.60;0.68;;;25.90;51.50;;;;;;5033946;28;20049;-78
2022/06/21 13:56:23;;;;;;;3.15;0.50;;;25.80;53.00;;;;;;5033475;28;20124;-78
2022/06/21 13:59:30;;;;;;;2.08;0.60;;;26.00;53.50;;;;;;5033315;28;20045;-78
2022/06/21 14:02:01;;;;;;;1.80;0.70;;;25.90;53.60;;;;;;5032855;28;20527;-78
2022/06/21 14:04:27;;;;;;;2.28;0.95;;;26.00;53.20;;;;;;5032749;28;20076;-78
2022/06/21 14:07:01;;;;;;;0.98;0.50;;;26.20;53.10;;;;;;5033637;28;20441;-78